Time;durP1;ratioP1;P1;durP2;ratioP2;P2;SDS_P1;SDS_P2;PMS_P1;PMS_P2;Temp;Humidity;BMP_temperature;BMP_pressure;BME280_temperature;BME280_humidity;BME280_pressure;Samples;Min_cycle;Max_cycle;Signal;HPM_P1;HPM_P2
2023/03/29 00:00:15;;;;;;;2.60;2.40;;;10.70;99.90;;;;;;5024362;28;20586;-64
2023/03/29 00:02:42;;;;;;;3.83;3.27;;;10.70;99.90;;;;;;5026364;28;20571;-64
2023/03/29 00:05:08;;;;;;;4.30;3.40;;;10.70;99.90;;;;;;5023406;28;20457;-64
2023/03/29 00:07:34;;;;;;;4.33;3.20;;;10.70;99.90;;;;;;5024078;28;20455;-64
2023/03/29 00:10:03;;;;;;;5.17;3.87;;;10.70;99.90;;;;;;5027178;28;20447;-64
2023/03/29 00:12:29;;;;;;;4.27;3.60;;;10.70;99.90;;;;;;5029692;28;20204;-64
2023/03/29 00:14:56;;;;;;;3.73;3.30;;;10.70;99.90;;;;;;5026620;28;20842;-64
2023/03/29 00:17:21;;;;;;;5.10;3.20;;;10.80;99.90;;;;;;5030363;28;20719;-64
2023/03/29 00:19:47;;;;;;;3.87;3.20;;;10.70;99.90;;;;;;5028989;28;20439;-64
2023/03/29 00:22:13;;;;;;;8.30;3.53;;;10.70;99.90;;;;;;5028635;28;20582;-65
2023/03/29 00:24:39;;;;;;;4.03;3.13;;;10.70;99.90;;;;;;5030286;28;20445;-65
2023/03/29 00:27:05;;;;;;;3.93;3.30;;;10.70;99.90;;;;;;5029530;28;20257;-65
2023/03/29 00:29:31;;;;;;;3.73;3.20;;;10.70;99.90;;;;;;5027050;28;20454;-65
2023/03/29 00:31:57;;;;;;;4.00;3.20;;;10.70;99.90;;;;;;5030671;28;20480;-65
2023/03/29 00:34:25;;;;;;;3.50;3.20;;;10.70;99.90;;;;;;5028146;28;20437;-65
2023/03/29 00:36:51;;;;;;;8.63;3.50;;;10.70;99.90;;;;;;5031901;28;20196;-65
2023/03/29 00:39:18;;;;;;;5.40;3.70;;;10.70;99.90;;;;;;5034205;28;20435;-65
2023/03/29 00:41:49;;;;;;;6.90;3.60;;;10.70;99.90;;;;;;5030660;28;20438;-65
2023/03/29 00:44:52;;;;;;;4.40;3.13;;;10.60;99.90;;;;;;5026785;28;20435;-65
2023/03/29 00:47:23;;;;;;;3.20;2.90;;;10.60;99.90;;;;;;5027422;28;20459;-65
2023/03/29 00:49:51;;;;;;;4.70;3.23;;;10.70;99.90;;;;;;5031121;28;20426;-65
2023/03/29 00:52:20;;;;;;;4.80;3.00;;;10.70;99.90;;;;;;5028884;28;20807;-65
2023/03/29 00:54:49;;;;;;;4.63;3.13;;;10.70;99.90;;;;;;5031904;28;20453;-65
2023/03/29 00:57:17;;;;;;;5.00;2.90;;;10.70;99.90;;;;;;5030239;28;20438;-65
2023/03/29 00:59:46;;;;;;;3.30;2.80;;;10.70;99.90;;;;;;5025336;28;20509;-64
2023/03/29 01:02:13;;;;;;;4.77;2.90;;;10.70;99.90;;;;;;5029825;28;20489;-64
2023/03/29 01:04:47;;;;;;;4.20;3.00;;;10.70;99.90;;;;;;5028874;28;20503;-64
2023/03/29 01:07:27;;;;;;;4.23;3.13;;;10.70;99.90;;;;;;5030403;28;20435;-65
2023/03/29 01:10:00;;;;;;;4.60;3.00;;;10.60;99.90;;;;;;5034438;28;20435;-64
2023/03/29 01:12:31;;;;;;;3.20;2.90;;;10.60;99.90;;;;;;5031927;28;20493;-64
2023/03/29 01:15:09;;;;;;;3.17;2.50;;;10.70;99.90;;;;;;5028411;28;20432;-64
2023/03/29 01:17:34;;;;;;;5.30;3.27;;;10.60;99.90;;;;;;5029237;28;20986;-64
2023/03/29 01:20:32;;;;;;;3.73;3.00;;;10.60;99.90;;;;;;5035232;28;20434;-64
2023/03/29 01:23:12;;;;;;;3.07;2.77;;;10.60;99.90;;;;;;5032404;28;20374;-64
2023/03/29 01:25:49;;;;;;;4.43;2.90;;;10.50;99.90;;;;;;5030482;28;20439;-64
2023/03/29 01:28:20;;;;;;;4.40;3.50;;;10.50;99.90;;;;;;5034118;28;20483;-64
2023/03/29 01:30:58;;;;;;;3.70;2.93;;;10.50;99.90;;;;;;5033044;28;20812;-64
2023/03/29 01:33:30;;;;;;;3.30;2.70;;;10.50;99.90;;;;;;5026036;28;20462;-64
2023/03/29 01:36:03;;;;;;;2.80;2.60;;;10.50;99.90;;;;;;5028668;28;20423;-64
2023/03/29 01:38:49;;;;;;;4.07;3.30;;;10.50;99.90;;;;;;5033804;28;20442;-65
2023/03/29 01:41:15;;;;;;;3.90;3.07;;;10.50;99.90;;;;;;5025088;28;21004;-64
2023/03/29 01:43:46;;;;;;;4.97;2.80;;;10.40;99.90;;;;;;5029670;28;20434;-64
2023/03/29 01:46:32;;;;;;;2.47;2.27;;;10.40;99.90;;;;;;5028824;28;20516;-64
2023/03/29 01:49:05;;;;;;;3.40;2.63;;;10.40;99.90;;;;;;5029919;28;20542;-64
2023/03/29 01:51:37;;;;;;;3.70;3.00;;;10.40;99.90;;;;;;5028047;28;20439;-64
2023/03/29 01:54:11;;;;;;;3.03;2.73;;;10.40;99.90;;;;;;5026563;28;20821;-64
2023/03/29 01:56:42;;;;;;;2.70;2.50;;;10.30;99.90;;;;;;5031232;28;20459;-64
2023/03/29 01:59:12;;;;;;;3.40;3.00;;;10.30;99.90;;;;;;5031193;28;20430;-65
2023/03/29 02:01:47;;;;;;;2.87;2.60;;;10.20;99.90;;;;;;5029456;28;20943;-64
2023/03/29 02:04:16;;;;;;;5.00;3.07;;;10.20;99.90;;;;;;5033296;28;20431;-65
2023/03/29 02:06:43;;;;;;;4.47;3.13;;;10.20;99.90;;;;;;5028542;28;20466;-64
2023/03/29 02:09:09;;;;;;;3.10;2.80;;;10.20;99.90;;;;;;5030863;28;20431;-65
2023/03/29 02:11:35;;;;;;;5.60;2.80;;;10.10;99.90;;;;;;5024425;28;20431;-64
2023/03/29 02:14:01;;;;;;;3.30;2.80;;;10.20;99.90;;;;;;5030767;28;20176;-64
2023/03/29 02:16:27;;;;;;;3.23;2.93;;;10.10;99.90;;;;;;5027731;28;20545;-65
2023/03/29 02:18:55;;;;;;;5.00;3.33;;;10.00;99.90;;;;;;5029831;28;20204;-64
2023/03/29 02:21:35;;;;;;;3.20;2.80;;;10.00;99.90;;;;;;5027986;28;20431;-64
2023/03/29 02:24:06;;;;;;;3.60;2.90;;;10.00;99.90;;;;;;5028521;28;20458;-65
2023/03/29 02:26:32;;;;;;;3.00;2.70;;;9.90;99.90;;;;;;5023543;28;20601;-63
2023/03/29 02:28:58;;;;;;;3.03;2.73;;;9.90;99.90;;;;;;5029678;28;21027;-64
2023/03/29 02:31:32;;;;;;;3.80;2.90;;;9.90;99.90;;;;;;5018772;28;20446;-64
2023/03/29 02:34:06;;;;;;;6.00;2.97;;;9.80;99.90;;;;;;5033257;28;20650;-64
2023/03/29 02:36:42;;;;;;;3.30;2.73;;;9.90;99.90;;;;;;5027123;28;20537;-63
2023/03/29 02:39:12;;;;;;;3.03;2.73;;;9.90;99.90;;;;;;5023666;28;20435;-63
2023/03/29 02:41:39;;;;;;;3.67;2.97;;;9.90;99.90;;;;;;5029943;28;20458;-64
2023/03/29 02:44:07;;;;;;;3.33;2.97;;;9.90;99.90;;;;;;5026370;28;20435;-64
2023/03/29 02:46:33;;;;;;;5.30;3.90;;;9.90;99.90;;;;;;5026128;28;21012;-64
2023/03/29 02:48:59;;;;;;;4.10;3.70;;;9.90;99.90;;;;;;5030185;28;20440;-64
2023/03/29 02:51:29;;;;;;;3.33;3.03;;;9.90;99.90;;;;;;5027929;28;20514;-63
2023/03/29 02:54:14;;;;;;;3.40;3.10;;;9.70;99.90;;;;;;5028921;28;20513;-63
2023/03/29 02:56:45;;;;;;;3.50;2.80;;;9.60;99.90;;;;;;5025667;28;21003;-63
2023/03/29 02:59:11;;;;;;;4.20;3.13;;;9.50;99.90;;;;;;5032340;28;21674;-63
2023/03/29 03:01:38;;;;;;;3.47;3.10;;;9.50;99.90;;;;;;5028383;28;20513;-63
2023/03/29 03:04:04;;;;;;;8.47;3.60;;;9.60;99.90;;;;;;5032452;28;20419;-63
2023/03/29 03:06:29;;;;;;;3.90;3.60;;;9.50;99.90;;;;;;5034721;28;20535;-63
2023/03/29 03:08:55;;;;;;;4.83;3.10;;;9.60;99.90;;;;;;5032490;28;20658;-63
2023/03/29 03:11:22;;;;;;;6.33;3.77;;;9.50;99.90;;;;;;5029143;28;20271;-64
2023/03/29 03:13:48;;;;;;;3.13;2.83;;;9.50;99.90;;;;;;5026427;28;20285;-64
2023/03/29 03:16:13;;;;;;;3.70;3.30;;;9.50;99.90;;;;;;5023575;28;20999;-64
2023/03/29 03:18:39;;;;;;;4.30;3.43;;;9.50;99.90;;;;;;5031032;28;20188;-64
2023/03/29 03:21:05;;;;;;;4.00;3.47;;;9.50;99.90;;;;;;5034282;28;20216;-64
2023/03/29 03:23:31;;;;;;;4.90;4.03;;;9.50;99.90;;;;;;5029987;28;20196;-63
2023/03/29 03:25:57;;;;;;;4.27;3.30;;;9.50;99.90;;;;;;5026381;28;20188;-63
2023/03/29 03:28:23;;;;;;;4.80;3.43;;;9.50;99.90;;;;;;5031985;28;20826;-64
2023/03/29 03:30:49;;;;;;;4.73;3.33;;;9.50;99.90;;;;;;5031079;28;20446;-63
2023/03/29 03:33:15;;;;;;;5.47;3.90;;;9.60;99.90;;;;;;5031047;28;20668;-64
2023/03/29 03:35:41;;;;;;;4.77;3.93;;;9.60;99.90;;;;;;5033350;28;20669;-64
2023/03/29 03:38:07;;;;;;;6.27;3.47;;;9.60;99.90;;;;;;5032273;28;20457;-64
2023/03/29 03:40:33;;;;;;;5.57;3.70;;;9.60;99.90;;;;;;5026357;28;20188;-64
2023/03/29 03:42:59;;;;;;;4.40;3.57;;;9.60;99.90;;;;;;5028347;28;20434;-63
2023/03/29 03:45:25;;;;;;;5.80;3.47;;;9.60;99.90;;;;;;5029819;28;20851;-63
2023/03/29 03:47:50;;;;;;;4.30;3.60;;;9.60;99.90;;;;;;5028408;28;20208;-64
2023/03/29 03:50:17;;;;;;;5.63;3.57;;;9.60;99.90;;;;;;5030620;28;20183;-64
2023/03/29 03:52:42;;;;;;;5.00;3.67;;;9.50;99.90;;;;;;5027158;28;20225;-63
2023/03/29 03:55:08;;;;;;;4.67;3.03;;;9.50;99.90;;;;;;5025951;28;20432;-64
2023/03/29 03:57:37;;;;;;;9.20;4.40;;;9.50;99.90;;;;;;5027811;28;20199;-64
2023/03/29 04:00:13;;;;;;;4.33;3.60;;;9.50;99.90;;;;;;5032869;28;20524;-64
2023/03/29 04:02:39;;;;;;;5.63;3.70;;;9.40;99.90;;;;;;5028946;28;20422;-64
2023/03/29 04:05:05;;;;;;;4.67;3.97;;;9.40;99.90;;;;;;5027152;28;20541;-64
2023/03/29 04:07:31;;;;;;;5.20;4.10;;;9.30;99.90;;;;;;5029788;28;20291;-64
2023/03/29 04:09:57;;;;;;;4.40;3.90;;;9.30;99.90;;;;;;5031384;28;20857;-63
2023/03/29 04:12:22;;;;;;;5.53;3.90;;;9.30;99.90;;;;;;5027205;28;20557;-64
2023/03/29 04:14:48;;;;;;;4.20;3.80;;;9.40;99.90;;;;;;5025545;28;20585;-64
2023/03/29 04:17:13;;;;;;;5.83;3.60;;;9.40;99.90;;;;;;5030510;28;20640;-64
2023/03/29 04:19:39;;;;;;;4.47;3.60;;;9.30;99.90;;;;;;5027485;28;20617;-63
2023/03/29 04:22:04;;;;;;;3.90;3.30;;;9.20;99.90;;;;;;5027127;28;20183;-63
2023/03/29 04:24:30;;;;;;;4.43;3.40;;;9.20;99.90;;;;;;5024879;28;20283;-63
2023/03/29 04:26:55;;;;;;;8.20;3.83;;;9.30;99.90;;;;;;5024500;28;20275;-63
2023/03/29 04:29:21;;;;;;;3.77;3.40;;;9.40;99.90;;;;;;5027813;28;20176;-63
2023/03/29 04:31:47;;;;;;;4.63;4.03;;;9.30;99.90;;;;;;5031482;28;20196;-63
2023/03/29 04:34:12;;;;;;;3.83;3.40;;;9.40;99.90;;;;;;5033566;28;20172;-63
2023/03/29 04:36:38;;;;;;;5.90;4.03;;;9.50;99.90;;;;;;5027655;28;20431;-63
2023/03/29 04:39:06;;;;;;;6.10;4.00;;;9.50;99.90;;;;;;5032175;28;20247;-64
2023/03/29 04:41:33;;;;;;;5.40;4.00;;;9.50;99.90;;;;;;5023523;28;20184;-64
2023/03/29 04:44:01;;;;;;;4.80;4.30;;;9.50;99.90;;;;;;5028982;28;20474;-64
2023/03/29 04:46:27;;;;;;;5.43;4.17;;;9.50;99.90;;;;;;5028479;28;20961;-64
2023/03/29 04:48:53;;;;;;;4.50;3.87;;;9.60;99.90;;;;;;5022877;28;20446;-64
2023/03/29 04:51:20;;;;;;;6.67;3.90;;;9.60;99.90;;;;;;5029422;28;20596;-65
2023/03/29 04:53:48;;;;;;;6.83;3.87;;;9.60;99.90;;;;;;5038282;28;20227;-64
2023/03/29 04:56:13;;;;;;;5.40;4.03;;;9.60;99.90;;;;;;5033105;28;20415;-64
2023/03/29 04:58:39;;;;;;;9.70;4.23;;;9.60;99.90;;;;;;5033909;28;20793;-64
2023/03/29 05:01:05;;;;;;;6.07;4.20;;;9.60;99.90;;;;;;5037946;28;20172;-64
2023/03/29 05:03:30;;;;;;;7.07;4.17;;;9.70;99.90;;;;;;5041282;28;20190;-64
2023/03/29 05:06:05;;;;;;;7.20;5.03;;;9.70;99.90;;;;;;5030653;28;20188;-64
2023/03/29 05:08:33;;;;;;;4.90;4.40;;;9.80;99.90;;;;;;5034145;28;20207;-64
2023/03/29 05:10:59;;;;;;;5.30;4.00;;;9.70;99.90;;;;;;5029616;28;20937;-64
2023/03/29 05:13:24;;;;;;;5.50;3.83;;;9.70;99.90;;;;;;5030299;28;20473;-65
2023/03/29 05:15:50;;;;;;;6.43;4.03;;;9.70;99.90;;;;;;5028509;28;20263;-63
2023/03/29 05:18:16;;;;;;;6.63;5.13;;;9.70;99.90;;;;;;5030605;28;20227;-63
2023/03/29 05:20:41;;;;;;;6.20;3.97;;;9.70;99.90;;;;;;5027436;28;20952;-63
2023/03/29 05:23:07;;;;;;;6.70;4.27;;;9.70;99.90;;;;;;5030117;28;20662;-63
2023/03/29 05:25:33;;;;;;;4.70;4.13;;;9.70;99.90;;;;;;5035463;28;20190;-64
2023/03/29 05:27:58;;;;;;;4.73;3.87;;;9.80;99.90;;;;;;5029038;28;20273;-63
2023/03/29 05:30:24;;;;;;;4.80;3.60;;;9.80;99.90;;;;;;5033335;28;20191;-63
2023/03/29 05:32:50;;;;;;;6.10;3.90;;;9.90;99.90;;;;;;5035199;28;20207;-63
2023/03/29 05:35:15;;;;;;;4.67;4.17;;;9.90;99.90;;;;;;5034962;28;20179;-63
2023/03/29 05:37:41;;;;;;;5.57;5.07;;;9.80;99.90;;;;;;5033101;28;20203;-63
2023/03/29 05:40:09;;;;;;;4.90;4.40;;;9.90;99.90;;;;;;5030744;28;20173;-63
2023/03/29 05:42:36;;;;;;;6.20;4.07;;;9.90;99.90;;;;;;5032056;28;20180;-63
2023/03/29 05:45:03;;;;;;;8.67;4.40;;;9.90;99.90;;;;;;5025942;28;20446;-63
2023/03/29 05:47:28;;;;;;;5.67;5.00;;;9.90;99.90;;;;;;5028592;28;20516;-64
2023/03/29 05:49:54;;;;;;;6.00;3.73;;;9.90;99.90;;;;;;5030959;28;20443;-63
2023/03/29 05:52:20;;;;;;;5.47;4.50;;;10.00;99.90;;;;;;5029511;28;20215;-63
2023/03/29 05:54:45;;;;;;;6.27;4.57;;;10.00;99.90;;;;;;5026471;28;20671;-63
2023/03/29 05:57:11;;;;;;;11.40;5.07;;;10.10;99.90;;;;;;5031701;28;20228;-64
2023/03/29 05:59:37;;;;;;;4.60;4.20;;;10.10;99.90;;;;;;5029016;28;20181;-63
2023/03/29 06:02:03;;;;;;;5.20;4.20;;;10.10;99.90;;;;;;5030114;28;20177;-64
2023/03/29 06:04:30;;;;;;;6.00;4.13;;;10.10;99.90;;;;;;5029741;28;20880;-64
2023/03/29 06:06:56;;;;;;;4.30;3.87;;;10.20;99.90;;;;;;5035026;28;20451;-64
2023/03/29 06:09:21;;;;;;;4.90;4.50;;;10.20;99.90;;;;;;5028038;28;20493;-64
2023/03/29 06:11:47;;;;;;;5.90;4.60;;;10.20;99.90;;;;;;5028706;28;20179;-64
2023/03/29 06:14:13;;;;;;;6.00;4.50;;;10.20;99.90;;;;;;5027240;28;20181;-63
2023/03/29 06:16:39;;;;;;;6.73;4.63;;;10.30;99.90;;;;;;5031513;28;20231;-64
2023/03/29 06:19:05;;;;;;;4.87;4.37;;;10.40;99.90;;;;;;5030158;28;20198;-64
2023/03/29 06:21:31;;;;;;;5.27;4.30;;;10.50;99.90;;;;;;5031890;28;20540;-63
2023/03/29 06:23:57;;;;;;;6.30;4.70;;;10.60;99.90;;;;;;5026218;28;20438;-64
2023/03/29 06:26:23;;;;;;;5.30;4.80;;;10.70;99.90;;;;;;5028396;28;20460;-64
2023/03/29 06:28:49;;;;;;;5.60;4.43;;;10.60;99.90;;;;;;5029206;28;20191;-64
2023/03/29 06:31:15;;;;;;;6.13;4.50;;;10.70;99.90;;;;;;5032261;28;20450;-64
2023/03/29 06:33:42;;;;;;;5.50;4.57;;;10.70;99.90;;;;;;5033509;28;20222;-64
2023/03/29 06:36:08;;;;;;;8.23;5.20;;;10.70;99.90;;;;;;5025410;28;20176;-64
2023/03/29 06:38:34;;;;;;;6.67;5.00;;;10.70;99.90;;;;;;5028686;28;20431;-64
2023/03/29 06:41:04;;;;;;;7.10;5.47;;;10.80;99.90;;;;;;5027721;28;20431;-65
2023/03/29 06:43:31;;;;;;;6.00;4.60;;;10.90;99.90;;;;;;5033986;28;20207;-64
2023/03/29 06:45:57;;;;;;;5.10;4.60;;;10.90;99.90;;;;;;5033901;28;20434;-65
2023/03/29 06:48:23;;;;;;;12.03;5.67;;;10.90;99.90;;;;;;5027326;28;20975;-64
2023/03/29 06:50:49;;;;;;;7.77;5.50;;;10.80;99.90;;;;;;5023768;28;20188;-64
2023/03/29 06:53:14;;;;;;;5.80;5.13;;;10.90;99.90;;;;;;5030205;28;20575;-64
2023/03/29 06:55:40;;;;;;;4.87;4.17;;;11.00;99.90;;;;;;5026199;28;20266;-64
2023/03/29 06:58:08;;;;;;;5.73;4.90;;;11.10;99.90;;;;;;5023424;28;20200;-64
2023/03/29 07:00:36;;;;;;;10.23;5.50;;;11.20;99.90;;;;;;5023634;28;20196;-63
2023/03/29 07:03:05;;;;;;;6.80;4.67;;;11.20;99.90;;;;;;5016415;28;20919;-63
2023/03/29 07:05:32;;;;;;;6.43;5.17;;;11.30;99.90;;;;;;5025735;28;20450;-64
2023/03/29 07:08:10;;;;;;;6.17;4.93;;;11.20;99.90;;;;;;5021893;28;20673;-63
2023/03/29 07:10:41;;;;;;;5.63;4.73;;;11.30;99.90;;;;;;5021018;28;21183;-62
2023/03/29 07:13:12;;;;;;;5.53;4.90;;;11.30;99.90;;;;;;5027188;28;21242;-62
2023/03/29 07:15:38;;;;;;;22.27;16.93;;;11.40;99.90;;;;;;5027570;28;20435;-62
2023/03/29 07:18:04;;;;;;;10.83;5.00;;;11.40;99.90;;;;;;5024623;28;20458;-64
2023/03/29 07:20:31;;;;;;;6.80;5.80;;;11.40;99.90;;;;;;5023075;28;20929;-64
2023/03/29 07:22:56;;;;;;;8.00;5.03;;;11.50;99.90;;;;;;5024790;28;20192;-64
2023/03/29 07:25:23;;;;;;;5.80;5.20;;;11.50;99.90;;;;;;5028055;28;20543;-64
2023/03/29 07:27:50;;;;;;;6.43;4.37;;;11.50;99.90;;;;;;5029172;28;20220;-64
2023/03/29 07:30:20;;;;;;;5.43;4.77;;;11.60;99.90;;;;;;5026805;28;20443;-64
2023/03/29 07:32:46;;;;;;;9.60;4.90;;;11.60;99.90;;;;;;5033021;28;20987;-64
2023/03/29 07:35:13;;;;;;;8.47;5.00;;;11.60;99.90;;;;;;5023840;28;20810;-63
2023/03/29 07:37:41;;;;;;;7.13;5.30;;;11.70;99.90;;;;;;5035844;28;20477;-64
2023/03/29 07:40:11;;;;;;;7.40;5.53;;;11.70;99.90;;;;;;5026901;28;20951;-64
2023/03/29 07:42:38;;;;;;;6.13;5.10;;;11.70;99.90;;;;;;5024655;28;20438;-64
2023/03/29 07:45:04;;;;;;;6.17;5.50;;;11.70;99.90;;;;;;5030587;28;21165;-64
2023/03/29 07:47:30;;;;;;;9.03;5.47;;;11.80;99.90;;;;;;5027559;28;20466;-64
2023/03/29 07:49:56;;;;;;;7.67;5.33;;;11.90;99.90;;;;;;5023302;28;20436;-64
2023/03/29 07:52:22;;;;;;;6.50;5.27;;;11.90;99.90;;;;;;5025930;28;20288;-64
2023/03/29 07:54:47;;;;;;;5.83;5.23;;;11.90;99.90;;;;;;5027628;28;20272;-63
2023/03/29 07:57:13;;;;;;;10.47;5.83;;;11.90;99.90;;;;;;5027044;28;20457;-65
2023/03/29 07:59:38;;;;;;;7.83;5.93;;;12.00;99.90;;;;;;5023076;28;20211;-64
2023/03/29 08:02:05;;;;;;;9.00;5.67;;;12.00;99.90;;;;;;5020355;28;20650;-63
2023/03/29 08:04:31;;;;;;;10.53;5.40;;;12.10;99.90;;;;;;5013962;28;20193;-64
2023/03/29 08:06:56;;;;;;;7.50;5.47;;;12.20;99.90;;;;;;5026802;28;20565;-63
2023/03/29 08:09:22;;;;;;;6.60;5.13;;;12.20;99.90;;;;;;5029413;28;20183;-63
2023/03/29 08:11:48;;;;;;;5.30;4.40;;;12.20;99.90;;;;;;5024122;28;20188;-63
2023/03/29 08:14:13;;;;;;;5.70;4.50;;;12.30;99.90;;;;;;5024280;28;20188;-66
2023/03/29 08:16:39;;;;;;;9.83;4.83;;;12.30;99.90;;;;;;5028037;28;20208;-63
2023/03/29 08:19:06;;;;;;;5.20;4.40;;;12.30;99.90;;;;;;5022128;28;20243;-63
2023/03/29 08:21:31;;;;;;;5.93;4.70;;;12.20;99.90;;;;;;5020836;28;20283;-63
2023/03/29 08:23:57;;;;;;;4.43;4.00;;;12.40;99.90;;;;;;5021862;28;21074;-64
2023/03/29 08:26:22;;;;;;;5.80;5.00;;;12.40;99.90;;;;;;5024530;28;20203;-63
2023/03/29 08:28:48;;;;;;;6.83;4.80;;;12.50;99.90;;;;;;5026129;28;20195;-63
2023/03/29 08:31:14;;;;;;;4.40;3.80;;;12.50;99.90;;;;;;5026741;28;20199;-64
2023/03/29 08:33:41;;;;;;;7.87;5.37;;;12.60;99.90;;;;;;5032245;28;20211;-65
2023/03/29 08:36:07;;;;;;;8.03;5.07;;;12.70;99.90;;;;;;5031123;28;20180;-64
2023/03/29 08:38:33;;;;;;;6.33;4.40;;;12.80;99.90;;;;;;5032044;28;20876;-64
2023/03/29 08:40:58;;;;;;;5.97;4.53;;;12.80;99.90;;;;;;5020459;28;20651;-64
2023/03/29 08:43:36;;;;;;;4.93;4.20;;;12.90;99.90;;;;;;5029264;28;20326;-63
2023/03/29 08:46:39;;;;;;;6.50;5.27;;;13.10;99.90;;;;;;5024338;28;20187;-64
2023/03/29 08:49:08;;;;;;;7.53;4.97;;;13.30;99.90;;;;;;5025044;28;20449;-63
2023/03/29 08:51:48;;;;;;;6.00;4.80;;;13.40;99.90;;;;;;5030031;28;20442;-64
2023/03/29 08:54:19;;;;;;;5.50;4.37;;;13.40;99.90;;;;;;5032470;28;20430;-63
2023/03/29 08:56:46;;;;;;;7.53;5.23;;;13.60;99.90;;;;;;5025948;28;20450;-63
2023/03/29 08:59:24;;;;;;;5.97;5.07;;;13.70;99.90;;;;;;5029116;28;20760;-63
2023/03/29 09:01:54;;;;;;;6.27;5.03;;;13.70;99.90;;;;;;5024778;28;20450;-63
2023/03/29 09:04:26;;;;;;;5.50;4.67;;;13.90;99.90;;;;;;5025957;28;20442;-63
2023/03/29 09:06:53;;;;;;;5.40;4.40;;;13.90;99.90;;;;;;5031870;28;20811;-63
2023/03/29 09:09:21;;;;;;;5.17;4.13;;;14.00;99.90;;;;;;5027204;28;20420;-63
2023/03/29 09:12:11;;;;;;;6.60;4.17;;;14.20;99.90;;;;;;5024854;28;20435;-63
2023/03/29 09:14:54;;;;;;;5.00;3.90;;;14.20;99.90;;;;;;5029979;28;20500;-64
2023/03/29 09:17:52;;;;;;;5.20;4.43;;;14.40;99.90;;;;;;5035609;28;20454;-63
2023/03/29 09:20:34;;;;;;;6.87;4.10;;;14.50;99.90;;;;;;5024931;28;20447;-62
2023/03/29 09:23:37;;;;;;;4.27;3.87;;;14.50;99.90;;;;;;5024423;28;20447;-63
2023/03/29 09:26:21;;;;;;;4.87;4.27;;;14.70;99.90;;;;;;5026763;28;20438;-62
2023/03/29 09:28:53;;;;;;;4.97;3.67;;;14.80;99.90;;;;;;5025420;28;20488;-63
2023/03/29 09:31:27;;;;;;;3.93;3.53;;;14.90;99.90;;;;;;5027600;28;20415;-62
2023/03/29 09:34:09;;;;;;;4.43;3.22;;;14.80;99.90;;;;;;5020192;28;20433;-64
2023/03/29 09:36:53;;;;;;;4.27;3.63;;;14.80;99.90;;;;;;5025240;28;20287;-63
2023/03/29 09:39:21;;;;;;;4.33;3.83;;;15.00;99.90;;;;;;5040640;28;20432;-63
2023/03/29 09:42:11;;;;;;;7.13;4.30;;;15.00;99.90;;;;;;5032212;28;20422;-63
2023/03/29 09:44:45;;;;;;;6.10;3.40;;;15.00;99.90;;;;;;5030702;28;20428;-63
2023/03/29 09:47:42;;;;;;;5.83;3.97;;;15.10;99.90;;;;;;5030146;28;20806;-63
2023/03/29 09:50:15;;;;;;;4.40;3.40;;;15.50;99.90;;;;;;5033573;28;20580;-63
2023/03/29 09:52:41;;;;;;;4.20;3.80;;;15.70;99.60;;;;;;5032300;28;20546;-63
2023/03/29 09:55:11;;;;;;;6.13;3.93;;;15.70;98.80;;;;;;5028446;28;21050;-63
2023/03/29 09:57:37;;;;;;;4.73;3.70;;;15.80;98.90;;;;;;5030694;28;21022;-63
2023/03/29 10:00:04;;;;;;;6.40;4.80;;;15.90;98.70;;;;;;5031839;28;20438;-63
2023/03/29 10:02:31;;;;;;;8.40;3.50;;;16.10;98.30;;;;;;5031041;28;20203;-63
2023/03/29 10:05:02;;;;;;;4.80;4.20;;;16.10;98.20;;;;;;5033138;28;20431;-63
2023/03/29 10:07:53;;;;;;;7.60;4.10;;;16.30;97.80;;;;;;5026972;28;20454;-63
2023/03/29 10:10:28;;;;;;;5.20;4.27;;;16.40;97.40;;;;;;5029814;28;20423;-63
2023/03/29 10:12:58;;;;;;;5.40;4.30;;;16.50;95.90;;;;;;5028551;28;20519;-63
2023/03/29 10:15:27;;;;;;;5.33;3.80;;;16.60;96.10;;;;;;5031615;28;20441;-63
2023/03/29 10:18:09;;;;;;;4.40;4.00;;;16.70;96.10;;;;;;5028201;28;20486;-63
2023/03/29 10:20:37;;;;;;;4.33;3.77;;;16.80;95.50;;;;;;5029062;28;20438;-63
2023/03/29 10:23:06;;;;;;;5.77;4.50;;;17.00;95.60;;;;;;5028807;28;20526;-64
2023/03/29 10:25:36;;;;;;;8.43;4.23;;;17.10;94.70;;;;;;5028607;28;20434;-63
2023/03/29 10:28:20;;;;;;;5.33;3.63;;;17.30;94.80;;;;;;5025613;28;20466;-64
2023/03/29 10:30:52;;;;;;;6.27;4.83;;;17.20;94.80;;;;;;5031615;28;20825;-64
2023/03/29 10:33:21;;;;;;;5.70;4.57;;;17.30;94.50;;;;;;5030598;28;20466;-63
2023/03/29 10:35:47;;;;;;;6.73;3.80;;;17.50;94.00;;;;;;5026099;28;20439;-64
2023/03/29 10:38:19;;;;;;;3.83;3.30;;;17.40;93.70;;;;;;5031028;28;20446;-64
2023/03/29 10:40:50;;;;;;;6.77;4.13;;;17.40;92.60;;;;;;5031624;28;20299;-64
2023/03/29 10:43:16;;;;;;;5.47;4.07;;;17.40;92.70;;;;;;5026323;28;20406;-64
2023/03/29 10:45:42;;;;;;;5.23;3.77;;;17.50;92.60;;;;;;5027943;28;20841;-65
2023/03/29 10:48:13;;;;;;;4.30;2.90;;;17.40;91.50;;;;;;5030557;28;20253;-65
2023/03/29 10:50:39;;;;;;;4.97;3.50;;;17.60;90.70;;;;;;5028956;28;20973;-64
2023/03/29 10:53:13;;;;;;;3.90;3.50;;;17.50;90.00;;;;;;5033915;28;20546;-64
2023/03/29 10:55:53;;;;;;;5.03;3.60;;;17.50;90.00;;;;;;5028440;28;20234;-65
2023/03/29 10:58:34;;;;;;;3.83;3.47;;;17.50;89.40;;;;;;5028551;28;20478;-63
2023/03/29 11:01:00;;;;;;;3.93;3.40;;;17.40;88.90;;;;;;5029851;28;20415;-63
2023/03/29 11:03:58;;;;;;;5.60;3.30;;;17.50;89.30;;;;;;5029995;28;20454;-63
2023/03/29 11:06:52;;;;;;;5.23;3.40;;;17.60;88.60;;;;;;5030104;28;20862;-64
2023/03/29 11:09:41;;;;;;;6.43;3.37;;;17.60;88.90;;;;;;5029444;28;21352;-62
2023/03/29 11:12:25;;;;;;;4.30;3.23;;;17.70;88.60;;;;;;5027690;28;20438;-62
2023/03/29 11:15:17;;;;;;;5.60;3.60;;;17.80;88.00;;;;;;5023154;28;20923;-62
2023/03/29 11:18:22;;;;;;;4.80;3.20;;;17.70;87.20;;;;;;5031576;28;20456;-62
2023/03/29 11:20:59;;;;;;;5.43;3.13;;;17.80;86.00;;;;;;5039114;28;20458;-61
2023/03/29 11:24:00;;;;;;;4.80;3.53;;;17.60;84.60;;;;;;5024951;28;20504;-62
2023/03/29 11:26:36;;;;;;;5.63;3.60;;;17.60;85.20;;;;;;5030589;28;20473;-63
2023/03/29 11:29:11;;;;;;;7.17;3.20;;;17.70;85.20;;;;;;5031718;28;20833;-63
2023/03/29 11:31:45;;;;;;;4.80;3.33;;;17.70;84.60;;;;;;5032425;28;20446;-63
2023/03/29 11:34:30;;;;;;;4.50;2.87;;;17.70;84.60;;;;;;5027304;28;21196;-63
2023/03/29 11:36:58;;;;;;;4.03;3.13;;;17.70;83.90;;;;;;5025013;28;20471;-63
2023/03/29 11:39:36;;;;;;;4.17;3.37;;;17.70;84.20;;;;;;5027590;28;20538;-63
2023/03/29 11:42:17;;;;;;;3.70;3.33;;;17.70;84.30;;;;;;5026541;28;20465;-63
2023/03/29 11:44:45;;;;;;;6.10;3.73;;;17.60;84.30;;;;;;5028255;28;20449;-62
2023/03/29 11:47:19;;;;;;;4.47;3.53;;;17.50;83.60;;;;;;5029958;28;20530;-62
2023/03/29 11:49:59;;;;;;;6.37;3.13;;;17.70;83.90;;;;;;5032040;28;20445;-63
2023/03/29 11:52:33;;;;;;;4.93;3.33;;;17.60;83.40;;;;;;5030547;28;20952;-63
2023/03/29 11:55:09;;;;;;;4.73;3.27;;;17.60;83.90;;;;;;5025331;28;20434;-62
2023/03/29 11:57:59;;;;;;;4.77;3.60;;;17.50;83.60;;;;;;5033361;28;21089;-62
2023/03/29 12:00:31;;;;;;;5.10;3.50;;;17.40;83.50;;;;;;5025938;28;20492;-62
2023/03/29 12:03:01;;;;;;;4.60;3.47;;;17.30;83.60;;;;;;5031910;28;20426;-63
2023/03/29 12:05:40;;;;;;;3.93;3.37;;;17.50;84.90;;;;;;5031892;28;20456;-63
2023/03/29 12:08:13;;;;;;;4.83;3.30;;;17.80;85.10;;;;;;5028519;28;20641;-63
2023/03/29 12:10:48;;;;;;;4.83;2.90;;;18.20;84.50;;;;;;5033223;28;20517;-63
2023/03/29 12:13:17;;;;;;;8.70;3.90;;;18.40;84.50;;;;;;5025013;28;20527;-63
2023/03/29 12:15:50;;;;;;;8.00;3.47;;;18.40;83.70;;;;;;5025480;28;20441;-63
2023/03/29 12:18:28;;;;;;;6.17;3.50;;;18.40;83.40;;;;;;5022431;28;20996;-63
2023/03/29 12:21:00;;;;;;;3.93;3.30;;;18.20;82.90;;;;;;5027014;28;20849;-62
2023/03/29 12:23:30;;;;;;;3.37;3.00;;;18.00;83.80;;;;;;5024944;28;20446;-62
2023/03/29 12:26:24;;;;;;;6.90;3.70;;;17.80;84.10;;;;;;5028034;28;20434;-62
2023/03/29 12:29:14;;;;;;;5.20;3.60;;;17.80;84.90;;;;;;5027984;28;20470;-62
2023/03/29 12:32:07;;;;;;;6.37;3.80;;;17.50;86.00;;;;;;5027101;28;20530;-62
2023/03/29 12:35:00;;;;;;;4.77;3.50;;;17.40;87.60;;;;;;5029129;28;20454;-63
2023/03/29 12:37:31;;;;;;;8.57;4.33;;;17.30;89.30;;;;;;5031507;28;20534;-63
2023/03/29 12:40:11;;;;;;;9.00;3.83;;;17.60;90.20;;;;;;5026638;28;20561;-63
2023/03/29 12:43:03;;;;;;;4.60;4.20;;;17.60;90.10;;;;;;5027302;28;20859;-62
2023/03/29 12:45:36;;;;;;;4.10;3.70;;;17.50;90.10;;;;;;5027548;28;20442;-62
2023/03/29 12:48:02;;;;;;;4.40;3.47;;;17.40;90.30;;;;;;5025451;28;20438;-62
2023/03/29 12:50:34;;;;;;;6.20;3.80;;;17.60;90.20;;;;;;5025416;28;20476;-63
2023/03/29 12:53:23;;;;;;;7.20;3.30;;;17.70;89.90;;;;;;5028762;28;20980;-62
2023/03/29 12:55:55;;;;;;;4.20;2.87;;;17.70;90.70;;;;;;5023621;28;20446;-63
2023/03/29 12:58:41;;;;;;;3.90;3.50;;;17.80;91.30;;;;;;5027785;28;20434;-62
2023/03/29 13:01:07;;;;;;;5.83;3.57;;;18.00;91.00;;;;;;5024093;28;20434;-63
2023/03/29 13:03:38;;;;;;;3.83;2.90;;;18.00;90.70;;;;;;5030635;28;20428;-62
2023/03/29 13:06:08;;;;;;;3.70;3.13;;;17.90;91.80;;;;;;5026043;28;20572;-63
2023/03/29 13:08:44;;;;;;;3.27;2.83;;;17.80;92.70;;;;;;5027064;28;20427;-62